McChord Air Force Base Tacoma US
ICAO: KTCM
IATA: TCM
Category: Large
Scheduled Services: No

Elevation: 322 ft
TransAlt. 18000 ft.

Airport Communications:
SEATTLE APP/DEP:126.5
ATIS:27.01
GND:125.15
PMSV METRO:34.25
COMD POST:34.94
PTD:37.22
TWR:124.8

KTCM Zoom In..

Runways:

(A) RW 16 length 10108 ft width 150 ft
ILS 109.90 / hdg 160

(B) RW 34 length 10108 ft width 150 ft
ILS 108.50 / hdg 340

Location; KTCM
Day. 31 / Time. 11.58 Zulu
* Altimeter: 30.00
* Temperature: 10° c. 50°f.
* Wind from: KTC° Speed M kn.
Dewpoint: 08° c.
Visibility: 10 Statute Miles.
Clouds: Scattered 4900 ft.
Clouds: Scattered 5500 ft.
Clouds: Overcast 11000 ft.

KTCM 311158Z AUTO 19010KT 10SM SCT049 SCT055 OVC110 10/08 A3000 RMK AO2 SLP163 60002 70076 T00960075 10104 20095 52017 $


Wind From KTC°
Speed M kn.

 
 
jpsmedia worldairports.se 2020   terms of use